Flight Track Log - Related Links

Times and Time Zones

All times are in EDT time to prevent confusion due to time zone crossing. See the N2827N flight status page for this flight to view local times or setup timezone preferences in your user account.

Time Position Orientation Groundspeed Altitude Reporting Facility
EDT Latitude Longitude Course Direction KTS MPH feet Rate Location/Type
Thu 06:14:10 PM 26.6125 -80.0439 189° South 109 125 2,800  Level Miami Center
Thu 06:15:12 PM 26.5981 -80.0744 242° Southwest 114 131 3,500 732 Climbing Miami Center
Thu 06:16:13 PM 26.5919 -80.1083 259° West 111 128 4,300 780 Climbing Miami Center
Thu 06:17:00 PM 26.6572 -80.3522 263° West  Level FlightAware Approximate
Thu 06:17:15 PM 26.5808 -80.1431 250° West 111 128 5,100  Level Miami Center
Thu 06:18:00 PM 26.6522 -80.3968 263° West  Level FlightAware Approximate
Thu 06:18:17 PM 26.5750 -80.1764 259° West 111 128 5,900  Level Miami Center
Thu 06:19:18 PM 26.5797 -80.2089 279° West 107 123 6,700 878 Climbing Miami Center
Thu 06:20:20 PM 26.5761 -80.2419 263° West 104 120 7,700 726 Climbing Miami Center
Thu 06:21:22 PM 26.5622 -80.2725 243° Southwest 112 129 8,200 242 Climbing Miami Center
Thu 06:22:24 PM 26.5447 -80.3200 248° West 153 176 8,200 -49 Level Miami Center
Thu 06:23:25 PM 26.5464 -80.3717 272° West 166 191 8,100 -98 Descending Miami Center
Thu 06:24:27 PM 26.5694 -80.4144 301° West 165 190 8,000 -97 Descending Miami Center
Thu 06:25:29 PM 26.5989 -80.4572 308° West 164 189 7,900 -387 Descending Miami Center
Thu 06:26:31 PM 26.6367 -80.4772 335° Northwest 180 207 7,200 -1,268 Descending Miami Center
Thu 06:27:32 PM 26.5969 -80.4597 158° South 181 208 5,300 -1,610 Descending Miami Center
Thu 06:28:34 PM 26.5461 -80.4594 180° South 172 198 3,900 -1,306 Descending Miami Center
Thu 06:29:36 PM 26.5667 -80.4894 307° West 178 205 2,600 -1,024 Descending Miami Center
Thu 06:30:37 PM 26.5783 -80.5408 284° West 172 198 1,800 -537 Descending Miami Center
Thu 06:31:39 PM 26.5653 -80.5717 245° Southwest 154 177 1,500 98 Descending Miami Center
Thu 06:32:40 PM 26.5594 -80.5292 99° East 140 161 2,000 293 Climbing Miami Center
Thu 06:33:42 PM 26.5781 -80.4836 65° Northeast 149 171 2,100 194 Climbing Miami Center
Thu 06:34:44 PM 26.5914 -80.4367 72° East 158 182 2,400 390 Climbing Miami Center
Thu 06:35:45 PM 26.5994 -80.3975 77° East 134 154 2,900 341 Climbing Miami Center
Thu 06:36:47 PM 26.5992 -80.3553 90° East 134 154 3,100 48 Climbing Miami Center
Thu 06:37:49 PM 26.5831 -80.3136 113° Southeast 146 168 3,000 -28 Descending Miami Center
Thu 06:43:58 PM 26.8258 -80.3406 259° West 164 189 2,900  Descending Miami Center
Thu 06:45:00 PM 26.8631 -80.3650 330° Northwest 150 173 3,000 48 Climbing Miami Center
Thu 06:46:00 PM 26.6372 -80.6190 262° West  Level FlightAware Approximate
Thu 06:46:02 PM 26.8986 -80.3911 327° Northwest 148 170 3,000  Level Miami Center
Thu 06:47:00 PM 26.6333 -80.6620 270° West  Level FlightAware Approximate
Thu 06:47:03 PM 26.9350 -80.4158 329° Northwest 148 170 2,900  Level Miami Center
Thu 06:48:00 PM 26.6325 -80.7052 259° West  Level FlightAware Approximate
Thu 06:48:05 PM 26.9667 -80.4400 326° Northwest 146 168 3,100  Level Miami Center
Thu 06:49:00 PM 26.6254 -80.7478 259° West  Level FlightAware Approximate
Thu 06:49:06 PM 27.0014 -80.4719 321° Northwest 149 171 2,900  Level Miami Center
Thu 06:50:08 PM 27.0358 -80.5072 318° Northwest 158 182 2,800 -48 Descending Miami Center
Thu 06:51:10 PM 27.0689 -80.5442 315° West 161 185 2,800 98 Level Miami Center
Thu 06:52:11 PM 27.0533 -80.5842 246° West 139 160 3,000 146 Climbing Miami Center
Thu 06:53:13 PM 27.0394 -80.6222 248° West 137 158 3,100 97 Climbing Miami Center
Thu 06:54:15 PM 27.0203 -80.6642 243° Southwest 143 165 3,200 -49 Climbing Miami Center
Thu 06:55:16 PM 27.0042 -80.7078 247° West 145 167 3,000 -146 Descending Miami Center
Thu 06:56:18 PM 27.0122 -80.7583 280° West 157 181 2,900  Descending Miami Center
Thu 06:57:19 PM 27.0272 -80.7994 292° West 151 174 3,000 49 Climbing Miami Center
Thu 06:58:21 PM 27.0433 -80.8425 293° West 145 167 3,000 48 Level Miami Center
Thu 06:59:23 PM 27.0583 -80.8881 290° West 147 169 3,100  Climbing Miami Center
Thu 07:00:24 PM 27.0725 -80.9297 291° West 148 170 3,000 -49 Descending Miami Center
Thu 07:01:26 PM 27.0886 -80.9753 292° West 149 171 3,000  Level Miami Center
Thu 07:02:27 PM 27.1019 -81.0214 288° West 148 170 3,000  Level Miami Center
Thu 07:03:29 PM 27.1156 -81.0658 289° West 148 170 3,000  Level Miami Center
Thu 07:04:30 PM 27.1300 -81.1064 292° West 147 169 3,000 49 Level Miami Center
Thu 07:05:32 PM 27.1458 -81.1494 292° West 145 167 3,100 49 Climbing Miami Center
Thu 07:06:33 PM 27.1614 -81.1922 292° West 144 166 3,100  Level Miami Center
Thu 07:07:35 PM 27.1764 -81.2336 292° West 140 161 3,100  Level Miami Center
Thu 07:08:36 PM 27.1886 -81.2700 291° West 130 150 3,100  Level Miami Center
Thu 07:09:38 PM 27.2042 -81.3111 293° West 136 157 3,100 -48 Level Miami Center
Thu 07:10:40 PM 27.2172 -81.3528 289° West 136 157 3,000 -98 Descending Miami Center
Thu 07:11:41 PM 27.2303 -81.3936 290° West 139 160 2,900 -49 Descending Miami Center
Thu 07:12:43 PM 27.2403 -81.4361 285° West 140 161 2,900  Level Miami Center
Thu 07:13:44 PM 27.2500 -81.4769 285° West 139 160 2,900 49 Level Miami Center
Thu 07:14:46 PM 27.2569 -81.5178 281° West 138 159 3,000 98 Climbing Miami Center
Thu 07:15:47 PM 27.2683 -81.5594 287° West 139 160 3,100 -49 Climbing Miami Center
Thu 07:16:49 PM 27.2858 -81.5994 296° West 140 161 2,900 -97 Descending Miami Center
Thu 07:17:51 PM 27.3014 -81.6403 293° West 141 162 2,900  Level Miami Center
Thu 07:18:52 PM 27.3186 -81.6894 292° West 141 162 2,900 -49 Level Miami Center
Thu 07:19:54 PM 27.3314 -81.7328 288° West 142 163 2,800  Descending Miami Center
Thu 07:20:55 PM 27.3436 -81.7753 288° West 144 166 2,900 146 Climbing Miami Center
Thu 07:21:57 PM 27.3564 -81.8164 289° West 142 163 3,100 49 Climbing Miami Center
Thu 07:22:58 PM 27.3714 -81.8575 292° West 142 163 3,000 -98 Descending Miami Center
Thu 07:24:00 PM 27.3858 -81.8981 292° West 141 162 2,900  Descending Miami Center
Thu 07:25:01 PM 27.4008 -81.9400 292° West 142 163 3,000 98 Climbing Miami Center
Thu 07:26:03 PM 27.4153 -81.9831 291° West 144 166 3,100 49 Climbing Miami Center
Thu 07:27:04 PM 27.4297 -82.0278 290° West 150 173 3,100  Level Miami Center
Thu 07:28:06 PM 27.4481 -82.0789 292° West 149 171 3,100  Level Miami Center
Thu 07:29:07 PM 27.4653 -82.1206 295° West 148 170 3,100  Level Miami Center
Thu 07:30:09 PM 27.4869 -82.1583 303° West 145 167 3,100  Level Miami Center
Thu 07:31:10 PM 27.5161 -82.1900 316° Northwest 145 167 3,100  Level Miami Center
Thu 07:32:12 PM 27.5325 -82.2308 294° West 144 166 3,100  Level Miami Center
Thu 07:33:13 PM 27.5447 -82.2753 287° West 146 168 3,100  Level Miami Center
Thu 07:34:15 PM 27.5592 -82.3206 290° West 149 171 3,100 -49 Level Miami Center
Thu 07:35:16 PM 27.5753 -82.3642 293° West 150 173 3,000 -98 Descending Miami Center
Thu 07:36:18 PM 27.5867 -82.4106 285° West 150 173 2,900  Descending Miami Center
Thu 07:37:19 PM 27.5978 -82.4544 286° West 149 171 3,000  Climbing Miami Center
Thu 07:38:21 PM 27.6119 -82.5075 287° West 148 170 2,900 -293 Descending Miami Center
Thu 07:39:22 PM 27.6314 -82.5511 297° West 152 175 2,400 -390 Descending Miami Center
Thu 07:40:24 PM 27.6681 -82.5789 326° Northwest 159 183 2,100 -244 Descending Miami Center
Thu 07:41:25 PM 27.7025 -82.6050 326° Northwest 153 176 1,900 -98 Descending Miami Center
Thu 07:42:27 PM 27.7386 -82.6247 334° Northwest 148 170 1,900 -146 Level Miami Center
Thu 07:43:28 PM 27.7731 -82.6444 333° Northwest 143 165 1,600 -246 Descending Miami Center
Thu 07:44:29 PM 27.8083 -82.6625 336° Northwest 142 163 1,400 -311 Descending Miami Center
Thu 07:45:43 PM 27.8667 -82.6833 342° North 123 142 900 -537 Descending Tampa TRACON
Thu 07:46:43 PM 27.8833 -82.6833 360° North 100 115 200 -700 Descending Tampa TRACON
Thu 07:49:00 PM 27.9000 -82.6833 North  Level FlightAware Approximate
Thu 07:56:00 PM 27.9100 -82.6875 North  Level Estimated

Login

Don't have an account? Register now (free) for customized features, flight alerts, and more!